Robbins, Illinois
Current Conditions -  °F | °C
As of 8:53 AM on Monday 24 Nov 2014 (Local Time) from KMDW Reporting Station
Light Rain Light Rain  
Wind Chill: 34°   Ceiling: 1000
Heat Index: 42°   Visibility: 6mi
Dew Point: 40°   Wind: 18mph
Humidity: 92%   Direction: 240°WSW
Pressure: 29.15"   Gusts: NA
Location:  41.64°N, 87.7°W
Report Text: KMDW 241453Z 24016KT 6SM -RA BR BKN010 OVC015 06/04 A2915 RMK AO2 PK WND 26028/1425 SLP874 P0006 60013 T00560044 53026
Loading
Personal Weather Stations






























Interactive Weather Map New forecast layout! Learn more

10-Day Weather Forecast

Advertisements
Track Severe Weather on mobile